Time;durP1;ratioP1;P1;durP2;ratioP2;P2;SDS_P1;SDS_P2;PMS_P1;PMS_P2;Temp;Humidity;BMP_temperature;BMP_pressure;BME280_temperature;BME280_humidity;BME280_pressure;Samples;Min_cycle;Max_cycle;Signal;HPM_P1;HPM_P2
2021/03/19 00:00:24;;;;;;;11.07;8.40;;;4.90;85.80;;;;;;5085654;28;20186;-62
2021/03/19 00:02:53;;;;;;;9.50;8.30;;;5.00;87.20;;;;;;5086262;28;20185;-63
2021/03/19 00:05:19;;;;;;;10.10;8.23;;;4.90;73.70;;;;;;5078400;28;20999;-63
2021/03/19 00:07:51;;;;;;;10.70;8.53;;;4.90;60.80;;;;;;5078407;28;20450;-63
2021/03/19 00:10:20;;;;;;;11.80;9.50;;;4.80;76.00;;;;;;5088703;28;20433;-63
2021/03/19 00:12:47;;;;;;;12.77;8.87;;;4.80;77.40;;;;;;5074619;28;20542;-62
2021/03/19 00:15:14;;;;;;;12.37;9.60;;;4.90;78.10;;;;;;5075590;28;20796;-63
2021/03/19 00:17:40;;;;;;;10.73;9.13;;;4.90;78.10;;;;;;5081821;28;20456;-63
2021/03/19 00:20:08;;;;;;;11.20;8.50;;;5.00;73.20;;;;;;5080748;28;20463;-63
2021/03/19 00:22:35;;;;;;;12.87;9.90;;;4.90;65.80;;;;;;5074098;28;20446;-62
2021/03/19 00:25:00;;;;;;;14.00;9.27;;;4.80;69.30;;;;;;5078191;28;20465;-62
2021/03/19 00:27:26;;;;;;;15.73;10.27;;;4.80;75.30;;;;;;5081026;28;20451;-63
2021/03/19 00:29:52;;;;;;;12.97;9.97;;;5.00;76.50;;;;;;5076800;28;20205;-63
2021/03/19 00:32:18;;;;;;;16.60;10.00;;;5.00;68.60;;;;;;5074616;28;20188;-63
2021/03/19 00:34:43;;;;;;;10.23;9.20;;;5.00;62.20;;;;;;5083630;28;20465;-63
2021/03/19 00:37:09;;;;;;;13.50;10.37;;;5.10;61.30;;;;;;5075364;28;20240;-64
2021/03/19 00:39:34;;;;;;;13.33;9.07;;;5.10;66.70;;;;;;5081344;28;20242;-63
2021/03/19 00:42:01;;;;;;;11.97;10.20;;;5.10;56.00;;;;;;5084227;28;20186;-63
2021/03/19 00:44:27;;;;;;;12.57;8.80;;;5.20;54.40;;;;;;5080378;28;20565;-63
2021/03/19 00:46:52;;;;;;;8.93;7.60;;;5.20;50.80;;;;;;5076675;28;20445;-63
2021/03/19 00:49:18;;;;;;;10.37;8.90;;;5.00;42.40;;;;;;5078746;28;20652;-63
2021/03/19 00:51:44;;;;;;;9.90;7.73;;;4.80;50.00;;;;;;5075909;28;20201;-63
2021/03/19 00:54:11;;;;;;;9.50;7.40;;;4.70;51.30;;;;;;5083080;28;20222;-63
2021/03/19 00:56:36;;;;;;;8.73;7.10;;;4.50;64.00;;;;;;5083356;28;20181;-63
2021/03/19 00:59:06;;;;;;;10.23;8.27;;;4.40;77.60;;;;;;5081147;28;20922;-63
2021/03/19 01:01:31;;;;;;;10.73;7.70;;;4.40;93.00;;;;;;5078542;28;20194;-63
2021/03/19 01:03:57;;;;;;;9.47;7.80;;;4.50;94.20;;;;;;5071965;28;20445;-63
2021/03/19 01:06:23;;;;;;;8.27;7.13;;;4.50;93.10;;;;;;5081760;28;20186;-63
2021/03/19 01:08:48;;;;;;;12.27;8.93;;;4.70;94.70;;;;;;5082304;28;20218;-63
2021/03/19 01:11:14;;;;;;;11.40;8.60;;;4.80;92.70;;;;;;5084725;28;20190;-63
2021/03/19 01:13:39;;;;;;;11.70;8.43;;;4.80;88.60;;;;;;5078805;28;20648;-63
2021/03/19 01:16:05;;;;;;;9.37;7.70;;;4.80;82.50;;;;;;5082229;28;20648;-64
2021/03/19 01:18:32;;;;;;;9.07;8.13;;;4.90;81.00;;;;;;5084260;28;20706;-63
2021/03/19 01:20:58;;;;;;;9.60;7.80;;;5.00;73.60;;;;;;5075699;28;20433;-63
2021/03/19 01:23:24;;;;;;;9.00;7.97;;;5.00;75.70;;;;;;5084517;28;20435;-63
2021/03/19 01:25:49;;;;;;;9.93;8.17;;;5.10;76.60;;;;;;5085375;28;20452;-63
2021/03/19 01:28:15;;;;;;;10.10;7.73;;;5.20;68.50;;;;;;5082097;28;20541;-64
2021/03/19 01:30:42;;;;;;;9.80;8.13;;;5.30;53.70;;;;;;5083938;28;20341;-63
2021/03/19 01:33:08;;;;;;;10.60;8.87;;;5.20;48.40;;;;;;5079813;28;20660;-64
2021/03/19 01:35:36;;;;;;;11.40;7.70;;;5.20;47.70;;;;;;5082951;28;20472;-63
2021/03/19 01:38:02;;;;;;;9.37;7.60;;;;;;;;;;5083555;28;20915;-63
2021/03/19 01:40:36;;;;;;;9.33;8.00;;;5.30;36.80;;;;;;5078651;28;20524;-63
2021/03/19 01:43:13;;;;;;;11.57;8.67;;;5.10;36.00;;;;;;5078096;28;20451;-63
2021/03/19 01:46:18;;;;;;;10.53;8.60;;;4.90;39.50;;;;;;5078289;28;21312;-63
2021/03/19 01:49:22;;;;;;;10.07;8.47;;;4.90;41.60;;;;;;5046604;28;20472;-63
2021/03/19 01:52:25;;;;;;;11.63;8.73;;;4.90;50.10;;;;;;5081386;28;20903;-63
2021/03/19 01:55:28;;;;;;;13.97;9.67;;;4.80;52.50;;;;;;5082032;28;20457;-63
2021/03/19 01:58:31;;;;;;;15.93;9.87;;;4.70;57.10;;;;;;5080549;28;20464;-63
2021/03/19 02:01:34;;;;;;;13.53;9.03;;;4.80;58.90;;;;;;5082317;28;20443;-63
2021/03/19 02:04:36;;;;;;;14.20;9.67;;;4.80;68.80;;;;;;5075561;28;20448;-63
2021/03/19 02:07:39;;;;;;;11.37;8.80;;;4.90;67.10;;;;;;5076989;28;20526;-63
2021/03/19 02:10:42;;;;;;;10.73;7.90;;;4.70;55.80;;;;;;5075750;28;20475;-62
2021/03/19 02:13:45;;;;;;;13.03;9.20;;;4.70;62.20;;;;;;5083464;28;20457;-62
2021/03/19 02:16:48;;;;;;;11.70;8.80;;;4.90;60.70;;;;;;5078003;28;20445;-62
2021/03/19 02:19:51;;;;;;;12.40;9.03;;;4.80;48.30;;;;;;5075515;28;20427;-63
2021/03/19 02:22:54;;;;;;;13.50;9.90;;;4.60;60.00;;;;;;5084197;28;20472;-63
2021/03/19 02:25:57;;;;;;;12.47;9.30;;;4.60;72.40;;;;;;5071431;28;20477;-63
2021/03/19 02:29:02;;;;;;;11.83;8.47;;;4.80;69.70;;;;;;5075946;28;20441;-63
2021/03/19 02:31:55;;;;;;;11.70;8.77;;;4.80;71.00;;;;;;5081475;28;20464;-63
2021/03/19 02:34:29;;;;;;;10.93;9.10;;;4.90;68.70;;;;;;5076586;28;20465;-63
2021/03/19 02:36:55;;;;;;;11.50;8.70;;;4.90;57.60;;;;;;5074865;28;20450;-63
2021/03/19 02:39:21;;;;;;;12.43;9.40;;;4.80;54.80;;;;;;5078531;28;20441;-63
2021/03/19 02:41:46;;;;;;;15.57;9.97;;;4.70;58.20;;;;;;5081161;28;20779;-63
2021/03/19 02:44:12;;;;;;;19.30;9.67;;;4.70;63.50;;;;;;5077764;28;20191;-63
2021/03/19 02:46:37;;;;;;;16.20;11.40;;;4.60;63.10;;;;;;5078219;28;20604;-63
2021/03/19 02:49:03;;;;;;;17.07;11.20;;;4.30;77.40;;;;;;5076516;28;20181;-63
2021/03/19 02:51:29;;;;;;;15.73;10.67;;;4.30;77.30;;;;;;5084391;28;20197;-63
2021/03/19 02:53:55;;;;;;;19.27;11.57;;;4.10;90.50;;;;;;5085456;28;20216;-62
2021/03/19 02:56:21;;;;;;;14.40;10.80;;;4.10;99.90;;;;;;5074734;28;20523;-63
2021/03/19 02:58:46;;;;;;;18.30;12.60;;;4.00;99.90;;;;;;5082424;28;20198;-63
2021/03/19 03:01:12;;;;;;;18.10;12.30;;;4.10;99.90;;;;;;5082801;28;20657;-62
2021/03/19 03:03:38;;;;;;;15.70;11.20;;;4.10;99.90;;;;;;5082426;28;20263;-62
2021/03/19 03:06:04;;;;;;;21.20;12.80;;;4.30;99.90;;;;;;5073262;28;20219;-62
2021/03/19 03:08:31;;;;;;;19.87;12.73;;;4.20;99.90;;;;;;5077427;28;20195;-62
2021/03/19 03:10:57;;;;;;;15.40;10.50;;;4.30;99.90;;;;;;5075813;28;20452;-63
2021/03/19 03:13:22;;;;;;;17.33;12.87;;;;;;;;;;5076413;28;20489;-62
2021/03/19 03:15:49;;;;;;;22.20;12.10;;;4.50;99.90;;;;;;5080202;28;20435;-62
2021/03/19 03:18:15;;;;;;;14.93;10.17;;;4.50;99.90;;;;;;5077472;28;20445;-62
2021/03/19 03:20:55;;;;;;;16.43;11.00;;;4.50;99.90;;;;;;5072146;28;20515;-62
2021/03/19 03:23:23;;;;;;;16.00;11.57;;;4.60;99.90;;;;;;5079357;28;20958;-62
2021/03/19 03:25:49;;;;;;;15.60;10.70;;;4.70;99.90;;;;;;5078180;28;20441;-63
2021/03/19 03:28:16;;;;;;;16.37;10.20;;;4.80;99.90;;;;;;5075745;28;20442;-63
2021/03/19 03:30:52;;;;;;;15.30;11.77;;;4.80;99.90;;;;;;5076027;28;20996;-62
2021/03/19 03:33:18;;;;;;;13.43;9.70;;;4.70;99.90;;;;;;5081122;28;20463;-63
2021/03/19 03:35:44;;;;;;;15.80;10.83;;;4.60;99.90;;;;;;5090262;28;20802;-63
2021/03/19 03:38:14;;;;;;;19.23;12.50;;;4.50;99.90;;;;;;5081769;28;20503;-63
2021/03/19 03:40:53;;;;;;;17.57;10.57;;;4.50;99.90;;;;;;5076264;28;20519;-63
2021/03/19 03:43:19;;;;;;;16.40;11.67;;;;;;;;;;5087758;28;20442;-63
2021/03/19 03:45:46;;;;;;;13.73;11.33;;;4.60;99.90;;;;;;5081772;28;20454;-62
2021/03/19 03:48:15;;;;;;;13.00;10.40;;;4.50;99.90;;;;;;5075766;28;20461;-64
2021/03/19 03:50:42;;;;;;;14.10;10.10;;;4.60;99.90;;;;;;5088574;28;20446;-63
2021/03/19 03:53:10;;;;;;;18.03;11.80;;;4.70;99.90;;;;;;5081359;28;20519;-63
2021/03/19 03:55:39;;;;;;;12.83;10.03;;;4.80;99.90;;;;;;5088241;28;20449;-63
2021/03/19 03:58:05;;;;;;;12.53;9.70;;;4.80;99.90;;;;;;5082598;28;20522;-63
2021/03/19 04:00:31;;;;;;;11.67;9.87;;;4.80;99.90;;;;;;5081606;28;20520;-63
2021/03/19 04:03:00;;;;;;;14.67;10.97;;;4.80;99.90;;;;;;5087660;28;20457;-62
2021/03/19 04:05:29;;;;;;;12.60;9.80;;;4.90;99.90;;;;;;5081128;28;20437;-63
2021/03/19 04:07:55;;;;;;;13.27;10.20;;;5.00;99.90;;;;;;5077537;28;20440;-63
2021/03/19 04:10:22;;;;;;;13.80;10.33;;;5.00;99.90;;;;;;5077836;28;20468;-63
2021/03/19 04:12:48;;;;;;;12.43;10.30;;;4.90;99.90;;;;;;5079460;28;20870;-63
2021/03/19 04:15:15;;;;;;;13.30;10.57;;;4.70;99.90;;;;;;5079459;28;20465;-63
2021/03/19 04:17:43;;;;;;;16.63;11.20;;;4.60;99.90;;;;;;5078590;28;20183;-63
2021/03/19 04:20:11;;;;;;;15.97;11.40;;;4.60;99.90;;;;;;5079997;28;20429;-63
2021/03/19 04:22:36;;;;;;;17.13;11.83;;;4.60;99.90;;;;;;5075944;28;20570;-63
2021/03/19 04:25:03;;;;;;;17.57;12.90;;;4.50;99.90;;;;;;5078856;28;21022;-63
2021/03/19 04:27:32;;;;;;;15.47;11.80;;;4.40;99.90;;;;;;5078966;28;20213;-63
2021/03/19 04:29:58;;;;;;;15.43;11.30;;;4.50;99.90;;;;;;5083004;28;20448;-63
2021/03/19 04:32:25;;;;;;;12.43;10.93;;;4.50;99.90;;;;;;5080856;28;20983;-63
2021/03/19 04:34:52;;;;;;;14.53;11.93;;;4.40;99.90;;;;;;5087057;28;20203;-63
2021/03/19 04:37:18;;;;;;;12.77;10.73;;;4.40;99.90;;;;;;5086212;28;20469;-63
2021/03/19 04:39:45;;;;;;;12.20;10.33;;;4.50;99.90;;;;;;5076909;28;20493;-63
2021/03/19 04:42:12;;;;;;;12.73;10.30;;;4.40;99.90;;;;;;5076807;28;20452;-63
2021/03/19 04:44:47;;;;;;;15.13;11.30;;;4.40;99.90;;;;;;5075616;28;20527;-62
2021/03/19 04:47:13;;;;;;;13.60;9.60;;;4.50;99.90;;;;;;5075827;28;20454;-63
2021/03/19 04:49:40;;;;;;;14.80;11.17;;;4.60;99.90;;;;;;5076237;28;20489;-63
2021/03/19 04:52:06;;;;;;;12.00;10.10;;;4.60;99.90;;;;;;5075716;28;20754;-63
2021/03/19 04:54:32;;;;;;;14.43;11.60;;;4.60;99.90;;;;;;5079059;28;20985;-62
2021/03/19 04:56:58;;;;;;;14.10;10.17;;;4.60;99.90;;;;;;5074996;28;20503;-62
2021/03/19 04:59:24;;;;;;;11.53;9.70;;;4.60;99.90;;;;;;5072727;28;20493;-63
2021/03/19 05:01:58;;;;;;;12.57;9.00;;;4.60;99.90;;;;;;5074293;28;20208;-63
2021/03/19 05:04:25;;;;;;;11.60;9.43;;;4.80;99.90;;;;;;5079726;28;20517;-63
2021/03/19 05:06:59;;;;;;;12.57;10.00;;;4.80;99.90;;;;;;5074719;28;20441;-63
2021/03/19 05:09:26;;;;;;;11.57;9.30;;;4.60;99.90;;;;;;5070180;28;20516;-62
2021/03/19 05:11:51;;;;;;;13.60;9.43;;;4.90;99.90;;;;;;5078609;28;20878;-63
2021/03/19 05:14:18;;;;;;;14.50;10.33;;;5.00;99.90;;;;;;5080351;28;20468;-63
2021/03/19 05:16:44;;;;;;;12.03;8.87;;;5.00;99.90;;;;;;5066634;28;20535;-63
2021/03/19 05:19:10;;;;;;;13.47;10.27;;;5.00;99.90;;;;;;5083473;28;20440;-62
2021/03/19 05:21:36;;;;;;;14.37;10.23;;;4.90;99.90;;;;;;5080708;28;20183;-62
2021/03/19 05:24:02;;;;;;;12.70;9.80;;;4.90;99.90;;;;;;5074303;28;20989;-63
2021/03/19 05:26:28;;;;;;;15.80;10.90;;;4.80;99.90;;;;;;5077637;28;20259;-62
2021/03/19 05:28:54;;;;;;;13.13;9.97;;;4.80;99.90;;;;;;5074807;28;20242;-62
2021/03/19 05:31:20;;;;;;;13.07;10.40;;;4.70;99.90;;;;;;5076397;28;20515;-62
2021/03/19 05:33:50;;;;;;;11.80;9.10;;;7.20;99.90;;;;;;5077737;28;20268;-62
2021/03/19 05:36:20;;;;;;;12.97;9.87;;;4.40;99.90;;;;;;5082593;28;20556;-62
2021/03/19 05:38:46;;;;;;;11.10;9.40;;;4.30;99.90;;;;;;5080778;28;20440;-62
2021/03/19 05:41:12;;;;;;;11.63;9.50;;;4.20;99.90;;;;;;5084641;28;20438;-62
2021/03/19 05:43:50;;;;;;;12.47;10.10;;;4.20;99.90;;;;;;5075338;28;20640;-62
2021/03/19 05:46:21;;;;;;;12.77;11.23;;;4.20;99.90;;;;;;5074459;28;20443;-63
2021/03/19 05:48:58;;;;;;;14.17;10.33;;;4.20;99.90;;;;;;5075985;28;20450;-62
2021/03/19 05:51:52;;;;;;;12.67;10.03;;;4.20;99.90;;;;;;5076587;28;20790;-62
2021/03/19 05:54:23;;;;;;;13.67;9.90;;;4.10;99.90;;;;;;5084832;28;20476;-62
2021/03/19 05:57:15;;;;;;;13.70;10.67;;;4.10;99.90;;;;;;5063163;28;20461;-62
2021/03/19 05:59:46;;;;;;;13.23;9.10;;;4.10;99.90;;;;;;5060398;28;20535;-62
2021/03/19 06:02:17;;;;;;;13.73;9.97;;;4.20;99.90;;;;;;5078563;28;20596;-62
2021/03/19 06:04:43;;;;;;;16.00;10.13;;;4.50;99.90;;;;;;5072122;28;20527;-62
2021/03/19 06:07:09;;;;;;;12.77;9.20;;;4.40;99.90;;;;;;5075027;28;20445;-61
2021/03/19 06:09:42;;;;;;;13.87;10.20;;;4.40;99.90;;;;;;5075662;28;20464;-61
2021/03/19 06:12:14;;;;;;;16.03;11.13;;;4.40;99.90;;;;;;5076979;28;20832;-61
2021/03/19 06:14:44;;;;;;;14.53;10.00;;;4.50;99.90;;;;;;5083777;28;20472;-60
2021/03/19 06:17:23;;;;;;;15.97;10.83;;;4.50;99.90;;;;;;5074489;28;20436;-60
2021/03/19 06:19:53;;;;;;;14.17;9.40;;;4.50;99.90;;;;;;5072500;28;20517;-61
2021/03/19 06:22:31;;;;;;;16.63;10.10;;;4.40;99.90;;;;;;5073388;28;20898;-61
2021/03/19 06:25:32;;;;;;;16.10;10.27;;;4.30;99.90;;;;;;5077745;28;21028;-61
2021/03/19 06:28:00;;;;;;;17.67;11.47;;;4.20;99.90;;;;;;5054254;28;20507;-61
2021/03/19 06:30:40;;;;;;;18.67;12.47;;;4.20;99.90;;;;;;5072841;28;20448;-61
2021/03/19 06:33:06;;;;;;;18.37;10.50;;;4.10;99.90;;;;;;5073223;28;20428;-60
2021/03/19 06:35:36;;;;;;;19.57;11.93;;;4.20;99.90;;;;;;5084905;28;20883;-60
2021/03/19 06:38:38;;;;;;;16.70;10.67;;;4.10;99.90;;;;;;5072350;28;20709;-61
2021/03/19 06:41:18;;;;;;;30.67;19.33;;;4.20;99.90;;;;;;5029167;28;20496;-62
2021/03/19 06:43:44;;;;;;;39.67;24.10;;;4.20;99.90;;;;;;5074057;28;20557;-60
2021/03/19 06:46:40;;;;;;;31.30;19.97;;;4.20;99.90;;;;;;5066530;28;20457;-61
2021/03/19 06:49:08;;;;;;;22.77;14.30;;;4.40;99.90;;;;;;5065606;28;21021;-61
2021/03/19 06:51:38;;;;;;;21.57;14.70;;;4.70;99.90;;;;;;5069327;28;20446;-60
2021/03/19 06:54:08;;;;;;;21.87;13.20;;;4.80;99.90;;;;;;5065580;28;20952;-61
2021/03/19 06:56:35;;;;;;;19.87;13.10;;;4.90;99.90;;;;;;5072350;28;20444;-65
2021/03/19 06:59:21;;;;;;;20.00;13.37;;;5.00;99.90;;;;;;5076714;28;20618;-64
2021/03/19 07:01:46;;;;;;;21.13;13.27;;;4.90;99.90;;;;;;5064188;28;20437;-63
2021/03/19 07:04:12;;;;;;;20.03;12.70;;;4.60;99.90;;;;;;5068264;28;20458;-63
2021/03/19 07:06:59;;;;;;;21.30;13.80;;;4.40;99.90;;;;;;5085958;28;20191;-63
2021/03/19 07:09:40;;;;;;;23.07;14.87;;;4.20;99.90;;;;;;5080376;28;20285;-63
2021/03/19 07:12:27;;;;;;;29.20;16.47;;;4.10;99.90;;;;;;5074782;28;21100;-65
2021/03/19 07:15:10;;;;;;;24.67;13.80;;;4.20;99.90;;;;;;5072472;28;20486;-66
2021/03/19 07:17:38;;;;;;;24.27;14.43;;;4.30;99.90;;;;;;5076369;28;20439;-65
2021/03/19 07:20:27;;;;;;;21.60;14.77;;;4.40;99.90;;;;;;5071001;28;20430;-67
2021/03/19 07:23:40;;;;;;;18.37;12.43;;;4.50;99.90;;;;;;5072552;28;20958;-65
2021/03/19 07:26:12;;;;;;;23.47;17.30;;;4.70;99.90;;;;;;5018133;28;20609;-66
2021/03/19 07:29:05;;;;;;;26.13;17.53;;;4.90;99.90;;;;;;5072037;28;20437;-67
2021/03/19 07:32:02;;;;;;;26.77;17.00;;;5.00;99.90;;;;;;5072776;28;20471;-66
2021/03/19 07:34:46;;;;;;;20.60;12.80;;;5.20;99.90;;;;;;5073237;28;20473;-68
2021/03/19 07:37:42;;;;;;;18.13;12.00;;;5.30;95.10;;;;;;5071564;28;20429;-66
2021/03/19 07:40:45;;;;;;;21.83;14.40;;;5.40;73.40;;;;;;5072073;28;20429;-66
2021/03/19 07:43:37;;;;;;;24.80;14.40;;;5.50;67.00;;;;;;5077698;28;20428;-68
2021/03/19 07:46:29;;;;;;;26.43;16.90;;;5.60;38.10;;;;;;5071855;28;20946;-68
2021/03/19 07:49:21;;;;;;;27.27;17.80;;;5.60;18.80;;;;;;5074860;28;20564;-65
2021/03/19 07:51:55;;;;;;;21.70;13.30;;;5.60;3.90;;;;;;5072674;28;20461;-66
2021/03/19 07:54:50;;;;;;;21.70;13.97;;;5.70;8.20;;;;;;5072676;28;20488;-66
2021/03/19 07:57:28;;;;;;;20.13;12.17;;;6.00;3.10;;;;;;5083781;28;20511;-68
2021/03/19 08:00:10;;;;;;;24.27;16.00;;;5.90;1.00;;;;;;5090103;28;20946;-66
2021/03/19 08:02:58;;;;;;;28.07;16.63;;;5.70;1.00;;;;;;5072718;28;20516;-65
2021/03/19 08:05:34;;;;;;;33.17;21.17;;;5.60;1.00;;;;;;5071627;28;20447;-66
2021/03/19 08:08:16;;;;;;;26.90;15.20;;;5.90;1.00;;;;;;5072603;28;20516;-64
2021/03/19 08:10:55;;;;;;;23.20;14.03;;;6.20;1.00;;;;;;5082444;28;20432;-53
2021/03/19 08:13:43;;;;;;;20.87;13.73;;;6.40;1.00;;;;;;5074067;28;20541;-53
2021/03/19 08:16:17;;;;;;;25.00;14.67;;;6.60;1.00;;;;;;5083583;28;20794;-56
2021/03/19 08:19:04;;;;;;;30.80;16.37;;;6.60;1.00;;;;;;5090789;28;20525;-54
2021/03/19 08:21:39;;;;;;;23.97;15.60;;;6.40;1.00;;;;;;5078922;28;20429;-54
2021/03/19 08:24:42;;;;;;;23.93;14.03;;;6.60;1.00;;;;;;5085166;28;20463;-55
2021/03/19 08:27:11;;;;;;;21.63;14.47;;;6.40;1.00;;;;;;5073672;28;20444;-55
2021/03/19 08:29:45;;;;;;;17.60;12.30;;;6.50;1.00;;;;;;5080896;28;20485;-53
2021/03/19 08:32:37;;;;;;;24.07;14.83;;;6.20;1.00;;;;;;5083488;28;20444;-55
2021/03/19 08:35:27;;;;;;;21.90;13.50;;;6.00;1.00;;;;;;5070605;28;20826;-56
2021/03/19 08:38:10;;;;;;;23.00;13.47;;;6.10;1.00;;;;;;5077202;28;20441;-58
2021/03/19 08:40:43;;;;;;;23.57;13.20;;;6.30;1.00;;;;;;5071735;28;20421;-59
2021/03/19 08:43:28;;;;;;;20.73;14.00;;;6.50;1.00;;;;;;5068905;28;20426;-58
2021/03/19 08:46:09;;;;;;;24.33;13.27;;;6.60;1.00;;;;;;5070700;28;20426;-59
2021/03/19 08:48:51;;;;;;;21.63;13.70;;;6.30;1.00;;;;;;5071527;28;20434;-57
2021/03/19 08:51:22;;;;;;;23.13;14.17;;;6.40;1.00;;;;;;5072109;28;20887;-59
2021/03/19 08:54:14;;;;;;;20.63;12.50;;;6.60;1.00;;;;;;5071842;28;20480;-59
2021/03/19 08:56:49;;;;;;;17.00;10.70;;;6.90;1.00;;;;;;5071587;28;20509;-58
2021/03/19 08:59:36;;;;;;;19.63;12.23;;;6.80;1.00;;;;;;5071149;28;20437;-58
2021/03/19 09:02:23;;;;;;;19.63;9.93;;;6.60;1.00;;;;;;5070331;28;20473;-59
2021/03/19 09:04:58;;;;;;;23.60;12.87;;;6.30;1.00;;;;;;5037921;28;20491;-58
2021/03/19 09:07:30;;;;;;;19.10;11.70;;;6.10;1.00;;;;;;5069884;28;20421;-59
2021/03/19 09:09:59;;;;;;;20.20;12.10;;;6.40;1.00;;;;;;5069572;28;20532;-59
2021/03/19 09:12:30;;;;;;;23.37;12.63;;;6.30;1.00;;;;;;5070782;28;20438;-58
2021/03/19 09:15:14;;;;;;;20.03;13.10;;;6.20;1.00;;;;;;5070681;28;20540;-58
2021/03/19 09:17:43;;;;;;;24.90;13.47;;;6.10;1.00;;;;;;5067329;28;20444;-59
2021/03/19 09:20:38;;;;;;;19.30;11.77;;;6.20;1.00;;;;;;5069911;28;20441;-59
2021/03/19 09:23:10;;;;;;;18.03;11.23;;;6.10;1.00;;;;;;5065008;28;20939;-60
2021/03/19 09:25:54;;;;;;;16.13;9.70;;;6.50;1.00;;;;;;5069390;28;20476;-59
2021/03/19 09:28:29;;;;;;;17.90;10.73;;;6.80;1.00;;;;;;5069152;28;20442;-59
2021/03/19 09:31:07;;;;;;;18.20;10.33;;;6.80;1.00;;;;;;5069814;28;20445;-60
2021/03/19 09:33:45;;;;;;;19.27;11.80;;;6.90;1.00;;;;;;5070490;28;20928;-59
2021/03/19 09:36:51;;;;;;;18.90;12.40;;;7.20;1.00;;;;;;5068410;28;20695;-59
2021/03/19 09:39:52;;;;;;;18.40;11.10;;;7.40;1.00;;;;;;5046731;28;20445;-59
2021/03/19 09:42:17;;;;;;;19.57;11.90;;;7.40;1.00;;;;;;5066148;28;20491;-60
2021/03/19 09:44:47;;;;;;;19.17;11.43;;;7.40;1.00;;;;;;5068379;28;21026;-58
2021/03/19 09:47:14;;;;;;;16.67;10.50;;;7.40;1.00;;;;;;5067967;28;20183;-58
2021/03/19 09:49:40;;;;;;;12.50;8.33;;;6.90;1.00;;;;;;5070586;28;20790;-58
2021/03/19 09:52:18;;;;;;;17.60;11.50;;;6.50;1.00;;;;;;5072403;28;20532;-60
2021/03/19 09:54:44;;;;;;;16.73;9.90;;;6.30;1.00;;;;;;5069383;28;20199;-59
2021/03/19 09:57:21;;;;;;;15.27;9.37;;;6.60;1.00;;;;;;5069079;28;20534;-59
2021/03/19 10:00:06;;;;;;;17.90;10.57;;;6.80;1.00;;;;;;5070249;28;20888;-60
2021/03/19 10:02:42;;;;;;;14.60;9.70;;;6.80;1.00;;;;;;5069188;28;20786;-59
2021/03/19 10:05:13;;;;;;;17.83;11.23;;;6.40;1.00;;;;;;5067589;28;20445;-59
2021/03/19 10:07:53;;;;;;;14.70;9.17;;;6.70;1.00;;;;;;5069764;28;20802;-59
2021/03/19 10:10:37;;;;;;;13.90;9.30;;;6.80;1.00;;;;;;5070551;28;20437;-59
2021/03/19 10:13:16;;;;;;;16.20;11.10;;;6.50;1.00;;;;;;5070457;28;20843;-61
2021/03/19 10:15:44;;;;;;;15.97;10.43;;;6.20;1.00;;;;;;5070461;28;20491;-59
2021/03/19 10:18:40;;;;;;;16.70;10.20;;;6.00;1.00;;;;;;5070716;28;20962;-58
2021/03/19 10:21:15;;;;;;;10.20;6.90;;;5.90;1.00;;;;;;5066981;28;20446;-59
2021/03/19 10:23:47;;;;;;;11.43;7.60;;;5.80;1.00;;;;;;5070544;28;20511;-58
2021/03/19 10:26:24;;;;;;;9.10;6.83;;;5.50;1.00;;;;;;5070444;28;20919;-59
2021/03/19 10:29:15;;;;;;;11.50;7.37;;;5.50;1.00;;;;;;5069579;28;20499;-58
2021/03/19 10:32:02;;;;;;;11.90;7.40;;;5.90;1.00;;;;;;5065460;28;20827;-58
2021/03/19 10:34:37;;;;;;;9.80;6.63;;;6.60;1.00;;;;;;5069254;28;20459;-59
2021/03/19 10:37:27;;;;;;;9.50;6.30;;;6.50;1.00;;;;;;5070367;28;20429;-59
2021/03/19 10:40:00;;;;;;;11.13;7.30;;;6.40;1.00;;;;;;5069515;28;20913;-59
2021/03/19 10:42:33;;;;;;;10.33;7.10;;;6.30;1.00;;;;;;5070452;28;20426;-58
2021/03/19 10:45:37;;;;;;;12.00;7.43;;;6.30;1.00;;;;;;5074929;28;20504;-59
2021/03/19 10:48:25;;;;;;;15.47;9.93;;;6.20;1.00;;;;;;5074425;28;20460;-58
2021/03/19 10:51:35;;;;;;;10.73;7.33;;;6.10;1.00;;;;;;5073964;28;20954;-59
2021/03/19 10:54:15;;;;;;;9.83;7.30;;;6.30;1.00;;;;;;5059645;28;20479;-58
2021/03/19 10:56:50;;;;;;;9.83;7.20;;;6.10;1.00;;;;;;5074042;28;20444;-58
2021/03/19 10:59:33;;;;;;;7.17;6.30;;;6.20;1.00;;;;;;5074411;28;20453;-58
2021/03/19 11:02:11;;;;;;;10.67;5.73;;;6.20;1.00;;;;;;5073970;28;20433;-58
2021/03/19 11:04:45;;;;;;;7.23;6.17;;;6.40;1.00;;;;;;5083720;28;20441;-59
2021/03/19 11:07:24;;;;;;;6.77;5.57;;;6.40;1.00;;;;;;5069642;28;20445;-58
2021/03/19 11:10:34;;;;;;;5.33;4.83;;;6.90;1.00;;;;;;5073816;28;20716;-60
2021/03/19 11:13:10;;;;;;;7.27;5.70;;;6.60;1.00;;;;;;5065453;28;20453;-58
2021/03/19 11:15:36;;;;;;;8.20;6.07;;;6.30;1.00;;;;;;5073375;28;20448;-59
2021/03/19 11:18:23;;;;;;;8.20;6.33;;;6.10;1.00;;;;;;5074098;28;20995;-58
2021/03/19 11:21:30;;;;;;;6.77;6.07;;;5.90;1.00;;;;;;5073363;28;20191;-57
2021/03/19 11:24:15;;;;;;;9.23;6.47;;;5.80;1.00;;;;;;5068473;28;20543;-58
2021/03/19 11:26:42;;;;;;;9.77;7.00;;;5.70;1.00;;;;;;5073363;28;20469;-58
2021/03/19 11:29:14;;;;;;;7.83;5.73;;;6.00;1.00;;;;;;5073385;28;20816;-58
2021/03/19 11:32:00;;;;;;;8.00;6.10;;;6.40;1.00;;;;;;5073170;28;20502;-58
2021/03/19 11:34:35;;;;;;;8.50;5.70;;;7.30;1.00;;;;;;5073426;28;21036;-60
2021/03/19 11:37:03;;;;;;;8.40;5.10;;;8.30;1.00;;;;;;5072749;28;20425;-59
2021/03/19 11:40:10;;;;;;;6.73;5.77;;;8.80;1.00;;;;;;5073236;28;21035;-58
2021/03/19 11:42:51;;;;;;;6.40;5.70;;;8.30;1.00;;;;;;5072592;28;20460;-58
2021/03/19 11:45:26;;;;;;;5.17;4.53;;;7.30;1.00;;;;;;5072838;28;20450;-59
2021/03/19 11:48:20;;;;;;;6.13;4.80;;;6.70;1.00;;;;;;5073244;28;20789;-60
2021/03/19 11:50:49;;;;;;;6.33;4.97;;;6.40;1.00;;;;;;5056306;28;20434;-60
2021/03/19 11:53:25;;;;;;;7.00;5.20;;;6.60;1.00;;;;;;5054849;28;20570;-59
2021/03/19 11:55:54;;;;;;;6.40;5.50;;;6.80;1.00;;;;;;5072318;28;20532;-60
2021/03/19 11:58:23;;;;;;;3.70;3.30;;;6.90;1.00;;;;;;5071852;28;20472;-59
2021/03/19 12:00:48;;;;;;;5.30;4.40;;;6.70;1.00;;;;;;5072714;28;20760;-59
2021/03/19 12:03:29;;;;;;;5.50;3.90;;;6.80;1.00;;;;;;5072612;28;20484;-58
2021/03/19 12:05:55;;;;;;;5.10;4.47;;;6.40;1.00;;;;;;5072695;28;20510;-58
2021/03/19 12:08:21;;;;;;;5.97;4.37;;;6.40;1.00;;;;;;5073034;28;20433;-59
2021/03/19 12:10:47;;;;;;;5.47;4.23;;;6.60;1.00;;;;;;5072166;28;20487;-59
2021/03/19 12:13:15;;;;;;;6.23;4.80;;;6.90;1.00;;;;;;5072426;28;20449;-59
2021/03/19 12:15:42;;;;;;;5.67;3.93;;;7.30;1.00;;;;;;5071484;28;20179;-59
2021/03/19 12:18:08;;;;;;;4.50;3.50;;;7.30;1.00;;;;;;5072669;28;20441;-60
2021/03/19 12:20:34;;;;;;;11.90;5.80;;;7.40;1.00;;;;;;5072345;28;20480;-59
2021/03/19 12:23:00;;;;;;;3.90;3.30;;;7.10;1.00;;;;;;5070819;28;20513;-59
2021/03/19 12:25:36;;;;;;;4.23;3.33;;;7.00;1.00;;;;;;5071868;28;20719;-58
2021/03/19 12:28:02;;;;;;;3.57;2.93;;;6.90;1.00;;;;;;5072006;28;20688;-59
2021/03/19 12:30:28;;;;;;;4.40;3.57;;;6.80;1.00;;;;;;5071080;28;20480;-59
2021/03/19 12:32:54;;;;;;;3.87;3.50;;;6.90;1.00;;;;;;5071709;28;20469;-59
2021/03/19 12:35:21;;;;;;;4.93;3.27;;;7.00;1.00;;;;;;5072148;28;20465;-58
2021/03/19 12:37:50;;;;;;;5.17;4.10;;;7.00;1.00;;;;;;5069770;28;20480;-59
2021/03/19 12:40:16;;;;;;;3.93;3.47;;;7.20;1.00;;;;;;5072350;28;20986;-59
2021/03/19 12:42:41;;;;;;;7.70;5.00;;;7.30;1.00;;;;;;5071969;28;20450;-59
2021/03/19 12:45:09;;;;;;;7.90;4.57;;;7.40;1.00;;;;;;5071777;28;20187;-59
2021/03/19 12:47:35;;;;;;;7.63;3.50;;;7.50;1.00;;;;;;5072165;28;20194;-58
2021/03/19 12:50:01;;;;;;;5.00;3.80;;;7.50;1.00;;;;;;5071646;28;20446;-59
2021/03/19 12:52:26;;;;;;;7.10;3.70;;;7.80;1.00;;;;;;5070659;28;20459;-61
2021/03/19 12:54:52;;;;;;;5.40;3.97;;;7.80;1.00;;;;;;5071925;28;20469;-59
2021/03/19 12:57:17;;;;;;;4.33;3.83;;;8.10;1.00;;;;;;5071435;28;20687;-59
2021/03/19 12:59:43;;;;;;;5.10;4.33;;;8.30;1.00;;;;;;5071495;28;20203;-59
2021/03/19 13:02:08;;;;;;;5.03;3.50;;;8.60;1.00;;;;;;5073649;28;20257;-59
2021/03/19 13:04:34;;;;;;;3.70;3.40;;;8.70;1.00;;;;;;5072132;28;20202;-59
2021/03/19 13:07:02;;;;;;;6.43;4.07;;;8.80;1.00;;;;;;5069058;28;20672;-59
2021/03/19 13:09:28;;;;;;;3.77;3.00;;;8.70;1.00;;;;;;5072179;28;20179;-59
2021/03/19 13:11:53;;;;;;;3.07;2.77;;;8.60;1.00;;;;;;5071457;28;20450;-60
2021/03/19 13:14:19;;;;;;;5.90;3.83;;;8.50;1.00;;;;;;5071484;28;20233;-67
2021/03/19 13:16:44;;;;;;;3.13;2.90;;;8.40;1.00;;;;;;5070308;28;20225;-67
2021/03/19 13:19:10;;;;;;;3.80;3.50;;;8.50;1.00;;;;;;5071344;28;20680;-67
2021/03/19 13:21:36;;;;;;;3.87;3.30;;;8.50;1.00;;;;;;5071545;28;20223;-67
2021/03/19 13:24:03;;;;;;;7.97;4.07;;;8.20;1.00;;;;;;5071084;28;20231;-66
2021/03/19 13:26:29;;;;;;;4.20;3.77;;;8.20;1.00;;;;;;5071047;28;20213;-67
2021/03/19 13:28:55;;;;;;;4.70;3.40;;;7.90;1.00;;;;;;5071398;28;20914;-65